sensor_id;sensor_type;location;lat;lon;timestamp;pressure;altitude;pressure_sealevel;temperature
19666;BMP180;9980;51.020;7.772;2022-11-27T00:01:16;98577.00;;;9.10
19666;BMP180;9980;51.020;7.772;2022-11-27T00:03:43;98580.00;;;9.10
19666;BMP180;9980;51.020;7.772;2022-11-27T00:06:15;98573.00;;;9.10
19666;BMP180;9980;51.020;7.772;2022-11-27T00:08:43;98582.00;;;9.10
19666;BMP180;9980;51.020;7.772;2022-11-27T00:11:20;98572.00;;;9.10
19666;BMP180;9980;51.020;7.772;2022-11-27T00:13:47;98563.00;;;9.10
19666;BMP180;9980;51.020;7.772;2022-11-27T00:16:14;98580.00;;;9.00
19666;BMP180;9980;51.020;7.772;2022-11-27T00:18:41;98574.00;;;9.10
19666;BMP180;9980;51.020;7.772;2022-11-27T00:21:13;98576.00;;;9.00
19666;BMP180;9980;51.020;7.772;2022-11-27T00:23:40;98556.00;;;9.00
19666;BMP180;9980;51.020;7.772;2022-11-27T00:26:07;98553.00;;;9.00
19666;BMP180;9980;51.020;7.772;2022-11-27T00:28:34;98546.00;;;9.00
19666;BMP180;9980;51.020;7.772;2022-11-27T00:31:05;98548.00;;;9.00
19666;BMP180;9980;51.020;7.772;2022-11-27T00:33:32;98534.00;;;9.00
19666;BMP180;9980;51.020;7.772;2022-11-27T00:36:06;98543.00;;;9.00
19666;BMP180;9980;51.020;7.772;2022-11-27T00:38:33;98543.00;;;9.00
19666;BMP180;9980;51.020;7.772;2022-11-27T00:43:36;98549.00;;;9.00
19666;BMP180;9980;51.020;7.772;2022-11-27T00:46:15;98537.00;;;9.00
19666;BMP180;9980;51.020;7.772;2022-11-27T00:48:41;98525.00;;;9.00
19666;BMP180;9980;51.020;7.772;2022-11-27T00:51:12;98517.00;;;8.90
19666;BMP180;9980;51.020;7.772;2022-11-27T00:53:39;98518.00;;;8.90
19666;BMP180;9980;51.020;7.772;2022-11-27T00:56:07;98518.00;;;8.90
19666;BMP180;9980;51.020;7.772;2022-11-27T00:58:33;98513.00;;;8.90
19666;BMP180;9980;51.020;7.772;2022-11-27T01:01:04;98539.00;;;8.90
19666;BMP180;9980;51.020;7.772;2022-11-27T01:03:31;98521.00;;;8.90
19666;BMP180;9980;51.020;7.772;2022-11-27T01:06:05;98536.00;;;8.90
19666;BMP180;9980;51.020;7.772;2022-11-27T01:08:33;98511.00;;;8.90
19666;BMP180;9980;51.020;7.772;2022-11-27T01:11:00;98516.00;;;8.90
19666;BMP180;9980;51.020;7.772;2022-11-27T01:13:34;98522.00;;;8.90
19666;BMP180;9980;51.020;7.772;2022-11-27T01:16:16;98506.00;;;8.90
19666;BMP180;9980;51.020;7.772;2022-11-27T01:18:45;98530.00;;;8.90
19666;BMP180;9980;51.020;7.772;2022-11-27T01:21:13;98534.00;;;8.90
19666;BMP180;9980;51.020;7.772;2022-11-27T01:23:40;98536.00;;;8.90
19666;BMP180;9980;51.020;7.772;2022-11-27T01:26:08;98537.00;;;8.90
19666;BMP180;9980;51.020;7.772;2022-11-27T01:28:42;98525.00;;;8.80
19666;BMP180;9980;51.020;7.772;2022-11-27T01:31:17;98527.00;;;8.80
19666;BMP180;9980;51.020;7.772;2022-11-27T01:33:47;98517.00;;;8.80
19666;BMP180;9980;51.020;7.772;2022-11-27T01:36:14;98531.00;;;8.80
19666;BMP180;9980;51.020;7.772;2022-11-27T01:38:41;98526.00;;;8.80
19666;BMP180;9980;51.020;7.772;2022-11-27T01:41:18;98521.00;;;8.80
19666;BMP180;9980;51.020;7.772;2022-11-27T01:43:56;98525.00;;;8.70
19666;BMP180;9980;51.020;7.772;2022-11-27T01:46:43;98531.00;;;8.70
19666;BMP180;9980;51.020;7.772;2022-11-27T01:51:55;98523.00;;;8.70
19666;BMP180;9980;51.020;7.772;2022-11-27T01:54:29;98522.00;;;8.60
19666;BMP180;9980;51.020;7.772;2022-11-27T01:57:03;98515.00;;;8.60
19666;BMP180;9980;51.020;7.772;2022-11-27T01:59:30;98520.00;;;8.60
19666;BMP180;9980;51.020;7.772;2022-11-27T02:01:56;98501.00;;;8.60
19666;BMP180;9980;51.020;7.772;2022-11-27T02:04:22;98525.00;;;8.60
19666;BMP180;9980;51.020;7.772;2022-11-27T02:06:48;98509.00;;;8.50
19666;BMP180;9980;51.020;7.772;2022-11-27T02:09:15;98523.00;;;8.50
19666;BMP180;9980;51.020;7.772;2022-11-27T02:14:38;98512.00;;;8.40
19666;BMP180;9980;51.020;7.772;2022-11-27T02:17:29;98513.00;;;8.40
19666;BMP180;9980;51.020;7.772;2022-11-27T02:20:18;98518.00;;;8.40
19666;BMP180;9980;51.020;7.772;2022-11-27T02:29:06;98485.00;;;8.20
19666;BMP180;9980;51.020;7.772;2022-11-27T02:37:52;98474.00;;;8.10
19666;BMP180;9980;51.020;7.772;2022-11-27T02:40:36;98474.00;;;8.10
19666;BMP180;9980;51.020;7.772;2022-11-27T02:43:27;98468.00;;;8.10
19666;BMP180;9980;51.020;7.772;2022-11-27T02:45:56;98454.00;;;8.10
19666;BMP180;9980;51.020;7.772;2022-11-27T02:48:34;98466.00;;;8.10
19666;BMP180;9980;51.020;7.772;2022-11-27T02:51:03;98444.00;;;8.10
19666;BMP180;9980;51.020;7.772;2022-11-27T02:53:38;98461.00;;;8.00
19666;BMP180;9980;51.020;7.772;2022-11-27T02:56:10;98465.00;;;8.10
19666;BMP180;9980;51.020;7.772;2022-11-27T02:58:39;98446.00;;;8.00
19666;BMP180;9980;51.020;7.772;2022-11-27T03:01:06;98461.00;;;8.00
19666;BMP180;9980;51.020;7.772;2022-11-27T03:03:46;98458.00;;;8.00
19666;BMP180;9980;51.020;7.772;2022-11-27T03:06:22;98449.00;;;8.00
19666;BMP180;9980;51.020;7.772;2022-11-27T03:09:05;98443.00;;;7.90
19666;BMP180;9980;51.020;7.772;2022-11-27T03:11:33;98449.00;;;7.90
19666;BMP180;9980;51.020;7.772;2022-11-27T03:14:06;98440.00;;;7.90
19666;BMP180;9980;51.020;7.772;2022-11-27T03:17:25;98434.00;;;7.90
19666;BMP180;9980;51.020;7.772;2022-11-27T03:22:33;98424.00;;;7.90
19666;BMP180;9980;51.020;7.772;2022-11-27T03:24:59;98423.00;;;7.80
19666;BMP180;9980;51.020;7.772;2022-11-27T03:27:32;98419.00;;;7.80
19666;BMP180;9980;51.020;7.772;2022-11-27T03:30:06;98421.00;;;7.80
19666;BMP180;9980;51.020;7.772;2022-11-27T03:32:33;98422.00;;;7.80
19666;BMP180;9980;51.020;7.772;2022-11-27T03:35:00;98421.00;;;7.80
19666;BMP180;9980;51.020;7.772;2022-11-27T03:37:26;98427.00;;;7.80
19666;BMP180;9980;51.020;7.772;2022-11-27T03:39:53;98421.00;;;7.80
19666;BMP180;9980;51.020;7.772;2022-11-27T03:51:41;98409.00;;;7.70
19666;BMP180;9980;51.020;7.772;2022-11-27T03:54:30;98400.00;;;7.70
19666;BMP180;9980;51.020;7.772;2022-11-27T03:57:16;98389.00;;;7.70
19666;BMP180;9980;51.020;7.772;2022-11-27T03:59:46;98396.00;;;7.70
19666;BMP180;9980;51.020;7.772;2022-11-27T04:02:15;98406.00;;;7.70
19666;BMP180;9980;51.020;7.772;2022-11-27T04:04:42;98414.00;;;7.70
19666;BMP180;9980;51.020;7.772;2022-11-27T04:07:15;98407.00;;;7.70
19666;BMP180;9980;51.020;7.772;2022-11-27T04:09:42;98410.00;;;7.60
19666;BMP180;9980;51.020;7.772;2022-11-27T04:12:08;98385.00;;;7.70
19666;BMP180;9980;51.020;7.772;2022-11-27T04:14:34;98390.00;;;7.60
19666;BMP180;9980;51.020;7.772;2022-11-27T04:17:01;98394.00;;;7.60
19666;BMP180;9980;51.020;7.772;2022-11-27T04:19:27;98396.00;;;7.60
19666;BMP180;9980;51.020;7.772;2022-11-27T04:21:53;98370.00;;;7.60
19666;BMP180;9980;51.020;7.772;2022-11-27T04:24:19;98392.00;;;7.60
19666;BMP180;9980;51.020;7.772;2022-11-27T04:26:45;98406.00;;;7.60
19666;BMP180;9980;51.020;7.772;2022-11-27T04:29:12;98404.00;;;7.60
19666;BMP180;9980;51.020;7.772;2022-11-27T04:31:38;98408.00;;;7.60
19666;BMP180;9980;51.020;7.772;2022-11-27T04:34:04;98400.00;;;7.60
19666;BMP180;9980;51.020;7.772;2022-11-27T04:36:30;98399.00;;;7.60
19666;BMP180;9980;51.020;7.772;2022-11-27T04:39:04;98375.00;;;7.60
19666;BMP180;9980;51.020;7.772;2022-11-27T04:41:30;98376.00;;;7.60
19666;BMP180;9980;51.020;7.772;2022-11-27T04:43:56;98393.00;;;7.60
19666;BMP180;9980;51.020;7.772;2022-11-27T04:46:23;98400.00;;;7.60
19666;BMP180;9980;51.020;7.772;2022-11-27T04:48:49;98396.00;;;7.60
19666;BMP180;9980;51.020;7.772;2022-11-27T04:51:15;98394.00;;;7.60
19666;BMP180;9980;51.020;7.772;2022-11-27T04:53:42;98396.00;;;7.60
19666;BMP180;9980;51.020;7.772;2022-11-27T04:56:08;98373.00;;;7.60
19666;BMP180;9980;51.020;7.772;2022-11-27T04:58:34;98382.00;;;7.60
19666;BMP180;9980;51.020;7.772;2022-11-27T05:01:00;98362.00;;;7.60
19666;BMP180;9980;51.020;7.772;2022-11-27T05:03:26;98358.00;;;7.60
19666;BMP180;9980;51.020;7.772;2022-11-27T05:05:55;98346.00;;;7.60
19666;BMP180;9980;51.020;7.772;2022-11-27T05:08:23;98360.00;;;7.60
19666;BMP180;9980;51.020;7.772;2022-11-27T05:11:09;98360.00;;;7.60
19666;BMP180;9980;51.020;7.772;2022-11-27T05:13:36;98330.00;;;7.60
19666;BMP180;9980;51.020;7.772;2022-11-27T05:16:03;98349.00;;;7.60
19666;BMP180;9980;51.020;7.772;2022-11-27T05:18:29;98341.00;;;7.60
19666;BMP180;9980;51.020;7.772;2022-11-27T05:21:02;98331.00;;;7.60
19666;BMP180;9980;51.020;7.772;2022-11-27T05:23:30;98337.00;;;7.60
19666;BMP180;9980;51.020;7.772;2022-11-27T05:25:56;98329.00;;;7.60
19666;BMP180;9980;51.020;7.772;2022-11-27T05:28:23;98314.00;;;7.60
19666;BMP180;9980;51.020;7.772;2022-11-27T05:30:53;98309.00;;;7.60
19666;BMP180;9980;51.020;7.772;2022-11-27T05:33:19;98314.00;;;7.60
19666;BMP180;9980;51.020;7.772;2022-11-27T05:35:45;98303.00;;;7.60
19666;BMP180;9980;51.020;7.772;2022-11-27T05:38:12;98315.00;;;7.60
19666;BMP180;9980;51.020;7.772;2022-11-27T05:40:38;98309.00;;;7.60
19666;BMP180;9980;51.020;7.772;2022-11-27T05:43:05;98310.00;;;7.60
19666;BMP180;9980;51.020;7.772;2022-11-27T05:45:31;98319.00;;;7.60
19666;BMP180;9980;51.020;7.772;2022-11-27T05:47:57;98308.00;;;7.70
19666;BMP180;9980;51.020;7.772;2022-11-27T05:50:23;98313.00;;;7.70
19666;BMP180;9980;51.020;7.772;2022-11-27T05:52:50;98313.00;;;7.70
19666;BMP180;9980;51.020;7.772;2022-11-27T05:55:16;98308.00;;;7.70
19666;BMP180;9980;51.020;7.772;2022-11-27T05:57:42;98314.00;;;7.70
19666;BMP180;9980;51.020;7.772;2022-11-27T06:00:09;98304.00;;;7.80
19666;BMP180;9980;51.020;7.772;2022-11-27T06:02:35;98307.00;;;7.80
19666;BMP180;9980;51.020;7.772;2022-11-27T06:05:02;98297.00;;;7.80
19666;BMP180;9980;51.020;7.772;2022-11-27T06:07:30;98299.00;;;7.80
19666;BMP180;9980;51.020;7.772;2022-11-27T06:09:56;98284.00;;;7.80
19666;BMP180;9980;51.020;7.772;2022-11-27T06:12:23;98279.00;;;7.80
19666;BMP180;9980;51.020;7.772;2022-11-27T06:14:49;98265.00;;;7.80
19666;BMP180;9980;51.020;7.772;2022-11-27T06:17:15;98263.00;;;7.80
19666;BMP180;9980;51.020;7.772;2022-11-27T06:19:42;98285.00;;;7.80
19666;BMP180;9980;51.020;7.772;2022-11-27T06:22:08;98280.00;;;7.80
19666;BMP180;9980;51.020;7.772;2022-11-27T06:24:34;98287.00;;;7.80
19666;BMP180;9980;51.020;7.772;2022-11-27T06:27:00;98270.00;;;7.80
19666;BMP180;9980;51.020;7.772;2022-11-27T06:29:26;98292.00;;;7.90
19666;BMP180;9980;51.020;7.772;2022-11-27T06:31:52;98279.00;;;7.90
19666;BMP180;9980;51.020;7.772;2022-11-27T06:34:19;98267.00;;;7.90
19666;BMP180;9980;51.020;7.772;2022-11-27T06:36:45;98288.00;;;7.90
19666;BMP180;9980;51.020;7.772;2022-11-27T06:39:11;98264.00;;;7.90
19666;BMP180;9980;51.020;7.772;2022-11-27T06:41:38;98261.00;;;8.00
19666;BMP180;9980;51.020;7.772;2022-11-27T06:44:04;98255.00;;;8.00
19666;BMP180;9980;51.020;7.772;2022-11-27T06:46:30;98275.00;;;8.00
19666;BMP180;9980;51.020;7.772;2022-11-27T06:48:57;98252.00;;;8.00
19666;BMP180;9980;51.020;7.772;2022-11-27T06:51:26;98240.00;;;8.00
19666;BMP180;9980;51.020;7.772;2022-11-27T06:53:54;98234.00;;;8.00
19666;BMP180;9980;51.020;7.772;2022-11-27T06:56:24;98239.00;;;8.00
19666;BMP180;9980;51.020;7.772;2022-11-27T06:58:57;98255.00;;;8.00
19666;BMP180;9980;51.020;7.772;2022-11-27T07:01:28;98249.00;;;8.00
19666;BMP180;9980;51.020;7.772;2022-11-27T07:03:55;98257.00;;;8.00
19666;BMP180;9980;51.020;7.772;2022-11-27T07:06:24;98246.00;;;8.00
19666;BMP180;9980;51.020;7.772;2022-11-27T07:08:51;98252.00;;;8.00
19666;BMP180;9980;51.020;7.772;2022-11-27T07:11:25;98232.00;;;8.00
19666;BMP180;9980;51.020;7.772;2022-11-27T07:13:55;98240.00;;;8.10
19666;BMP180;9980;51.020;7.772;2022-11-27T07:16:22;98236.00;;;8.10
19666;BMP180;9980;51.020;7.772;2022-11-27T07:18:52;98244.00;;;8.10
19666;BMP180;9980;51.020;7.772;2022-11-27T07:21:19;98251.00;;;8.10
19666;BMP180;9980;51.020;7.772;2022-11-27T07:23:46;98242.00;;;8.10
19666;BMP180;9980;51.020;7.772;2022-11-27T07:26:19;98235.00;;;8.10
19666;BMP180;9980;51.020;7.772;2022-11-27T07:28:46;98240.00;;;8.20
19666;BMP180;9980;51.020;7.772;2022-11-27T07:31:20;98236.00;;;8.20
19666;BMP180;9980;51.020;7.772;2022-11-27T07:33:47;98226.00;;;8.20
19666;BMP180;9980;51.020;7.772;2022-11-27T07:36:16;98207.00;;;8.20
19666;BMP180;9980;51.020;7.772;2022-11-27T07:38:44;98221.00;;;8.20
19666;BMP180;9980;51.020;7.772;2022-11-27T07:41:12;98200.00;;;8.30
19666;BMP180;9980;51.020;7.772;2022-11-27T07:43:40;98196.00;;;8.30
19666;BMP180;9980;51.020;7.772;2022-11-27T07:48:39;98204.00;;;8.40
19666;BMP180;9980;51.020;7.772;2022-11-27T07:51:07;98215.00;;;8.40
19666;BMP180;9980;51.020;7.772;2022-11-27T07:53:39;98203.00;;;8.40
19666;BMP180;9980;51.020;7.772;2022-11-27T07:56:09;98207.00;;;8.50
19666;BMP180;9980;51.020;7.772;2022-11-27T07:58:36;98204.00;;;8.50
19666;BMP180;9980;51.020;7.772;2022-11-27T08:01:08;98208.00;;;8.50
19666;BMP180;9980;51.020;7.772;2022-11-27T08:03:35;98208.00;;;8.60
19666;BMP180;9980;51.020;7.772;2022-11-27T08:06:02;98199.00;;;8.60
19666;BMP180;9980;51.020;7.772;2022-11-27T08:08:29;98191.00;;;8.60
19666;BMP180;9980;51.020;7.772;2022-11-27T08:10:55;98192.00;;;8.70
19666;BMP180;9980;51.020;7.772;2022-11-27T08:13:22;98191.00;;;8.70
19666;BMP180;9980;51.020;7.772;2022-11-27T08:15:48;98190.00;;;8.70
19666;BMP180;9980;51.020;7.772;2022-11-27T08:18:14;98188.00;;;8.80
19666;BMP180;9980;51.020;7.772;2022-11-27T08:20:41;98187.00;;;8.80
19666;BMP180;9980;51.020;7.772;2022-11-27T08:23:07;98185.00;;;8.80
19666;BMP180;9980;51.020;7.772;2022-11-27T08:25:33;98198.00;;;8.80
19666;BMP180;9980;51.020;7.772;2022-11-27T08:28:00;98191.00;;;8.80
19666;BMP180;9980;51.020;7.772;2022-11-27T08:30:26;98179.00;;;8.90
19666;BMP180;9980;51.020;7.772;2022-11-27T08:32:52;98203.00;;;8.90
19666;BMP180;9980;51.020;7.772;2022-11-27T08:35:18;98189.00;;;8.90
19666;BMP180;9980;51.020;7.772;2022-11-27T08:37:45;98195.00;;;9.00
19666;BMP180;9980;51.020;7.772;2022-11-27T08:40:11;98182.00;;;9.00
19666;BMP180;9980;51.020;7.772;2022-11-27T08:42:37;98187.00;;;9.10
19666;BMP180;9980;51.020;7.772;2022-11-27T08:45:04;98195.00;;;9.10
19666;BMP180;9980;51.020;7.772;2022-11-27T08:47:31;98181.00;;;9.20
19666;BMP180;9980;51.020;7.772;2022-11-27T08:49:57;98182.00;;;9.20
19666;BMP180;9980;51.020;7.772;2022-11-27T08:52:24;98178.00;;;9.20
19666;BMP180;9980;51.020;7.772;2022-11-27T08:54:51;98166.00;;;9.30
19666;BMP180;9980;51.020;7.772;2022-11-27T08:57:23;98163.00;;;9.30
19666;BMP180;9980;51.020;7.772;2022-11-27T08:59:50;98158.00;;;9.40
19666;BMP180;9980;51.020;7.772;2022-11-27T09:02:16;98161.00;;;9.40
19666;BMP180;9980;51.020;7.772;2022-11-27T09:04:42;98145.00;;;9.40
19666;BMP180;9980;51.020;7.772;2022-11-27T09:07:09;98137.00;;;9.50
19666;BMP180;9980;51.020;7.772;2022-11-27T09:09:39;98125.00;;;9.50
19666;BMP180;9980;51.020;7.772;2022-11-27T09:12:05;98144.00;;;9.60
19666;BMP180;9980;51.020;7.772;2022-11-27T09:14:32;98135.00;;;9.60
19666;BMP180;9980;51.020;7.772;2022-11-27T09:16:58;98130.00;;;9.70
19666;BMP180;9980;51.020;7.772;2022-11-27T09:19:24;98135.00;;;9.70
19666;BMP180;9980;51.020;7.772;2022-11-27T09:21:50;98131.00;;;9.80
19666;BMP180;9980;51.020;7.772;2022-11-27T09:24:17;98131.00;;;9.80
19666;BMP180;9980;51.020;7.772;2022-11-27T09:26:43;98127.00;;;9.90
19666;BMP180;9980;51.020;7.772;2022-11-27T09:29:09;98122.00;;;9.90
19666;BMP180;9980;51.020;7.772;2022-11-27T09:31:36;98112.00;;;10.00
19666;BMP180;9980;51.020;7.772;2022-11-27T09:34:02;98112.00;;;10.00
19666;BMP180;9980;51.020;7.772;2022-11-27T09:36:29;98099.00;;;10.00
19666;BMP180;9980;51.020;7.772;2022-11-27T09:38:57;98115.00;;;10.10
19666;BMP180;9980;51.020;7.772;2022-11-27T09:42:00;98101.00;;;10.10
19666;BMP180;9980;51.020;7.772;2022-11-27T09:44:42;98100.00;;;10.20
19666;BMP180;9980;51.020;7.772;2022-11-27T09:48:15;98096.00;;;10.20
19666;BMP180;9980;51.020;7.772;2022-11-27T09:50:29;98094.00;;;10.30
19666;BMP180;9980;51.020;7.772;2022-11-27T09:53:04;98084.00;;;10.30
19666;BMP180;9980;51.020;7.772;2022-11-27T09:55:42;98083.00;;;10.40
19666;BMP180;9980;51.020;7.772;2022-11-27T09:58:19;98086.00;;;10.40
19666;BMP180;9980;51.020;7.772;2022-11-27T10:00:47;98086.00;;;10.50
19666;BMP180;9980;51.020;7.772;2022-11-27T10:03:17;98106.00;;;10.50
19666;BMP180;9980;51.020;7.772;2022-11-27T10:09:09;98097.00;;;10.60
19666;BMP180;9980;51.020;7.772;2022-11-27T10:17:28;98106.00;;;10.80
19666;BMP180;9980;51.020;7.772;2022-11-27T10:20:40;98107.00;;;10.80
19666;BMP180;9980;51.020;7.772;2022-11-27T10:23:52;98085.00;;;10.90
19666;BMP180;9980;51.020;7.772;2022-11-27T10:26:31;98084.00;;;10.90
19666;BMP180;9980;51.020;7.772;2022-11-27T10:29:33;98101.00;;;10.90
19666;BMP180;9980;51.020;7.772;2022-11-27T10:35:01;98101.00;;;11.00
19666;BMP180;9980;51.020;7.772;2022-11-27T10:37:48;98098.00;;;11.10
19666;BMP180;9980;51.020;7.772;2022-11-27T10:40:29;98086.00;;;11.10
19666;BMP180;9980;51.020;7.772;2022-11-27T10:43:10;98080.00;;;11.10
19666;BMP180;9980;51.020;7.772;2022-11-27T10:45:53;98079.00;;;11.10
19666;BMP180;9980;51.020;7.772;2022-11-27T10:48:22;98066.00;;;11.20
19666;BMP180;9980;51.020;7.772;2022-11-27T10:50:49;98056.00;;;11.20
19666;BMP180;9980;51.020;7.772;2022-11-27T10:53:26;98076.00;;;11.20
19666;BMP180;9980;51.020;7.772;2022-11-27T10:59:09;98068.00;;;11.20
19666;BMP180;9980;51.020;7.772;2022-11-27T11:01:51;98057.00;;;11.30
19666;BMP180;9980;51.020;7.772;2022-11-27T11:04:27;98061.00;;;11.30
19666;BMP180;9980;51.020;7.772;2022-11-27T11:07:27;98059.00;;;11.40
19666;BMP180;9980;51.020;7.772;2022-11-27T11:09:55;98055.00;;;11.40
19666;BMP180;9980;51.020;7.772;2022-11-27T11:12:22;98065.00;;;11.50
19666;BMP180;9980;51.020;7.772;2022-11-27T11:14:59;98047.00;;;11.50
19666;BMP180;9980;51.020;7.772;2022-11-27T11:17:30;98024.00;;;11.50
19666;BMP180;9980;51.020;7.772;2022-11-27T11:19:59;98016.00;;;11.60
19666;BMP180;9980;51.020;7.772;2022-11-27T11:22:27;98029.00;;;11.60
19666;BMP180;9980;51.020;7.772;2022-11-27T11:24:55;98009.00;;;11.70
19666;BMP180;9980;51.020;7.772;2022-11-27T11:27:30;98003.00;;;11.70
19666;BMP180;9980;51.020;7.772;2022-11-27T11:30:04;98013.00;;;11.70
19666;BMP180;9980;51.020;7.772;2022-11-27T11:32:36;98002.00;;;11.80
19666;BMP180;9980;51.020;7.772;2022-11-27T11:37:49;98023.00;;;11.90
19666;BMP180;9980;51.020;7.772;2022-11-27T11:40:23;98015.00;;;11.90
19666;BMP180;9980;51.020;7.772;2022-11-27T11:43:05;98005.00;;;12.00
19666;BMP180;9980;51.020;7.772;2022-11-27T11:45:45;98003.00;;;12.00
19666;BMP180;9980;51.020;7.772;2022-11-27T11:48:26;98001.00;;;12.10
19666;BMP180;9980;51.020;7.772;2022-11-27T11:51:06;97997.00;;;12.10
19666;BMP180;9980;51.020;7.772;2022-11-27T11:53:38;97990.00;;;12.10
19666;BMP180;9980;51.020;7.772;2022-11-27T11:56:34;97978.00;;;12.20
19666;BMP180;9980;51.020;7.772;2022-11-27T11:59:16;97986.00;;;12.20
19666;BMP180;9980;51.020;7.772;2022-11-27T12:11:13;97962.00;;;12.40
19666;BMP180;9980;51.020;7.772;2022-11-27T12:17:14;97957.00;;;12.50
19666;BMP180;9980;51.020;7.772;2022-11-27T12:32:32;97909.00;;;12.80
19666;BMP180;9980;51.020;7.772;2022-11-27T12:35:51;97918.00;;;12.80
19666;BMP180;9980;51.020;7.772;2022-11-27T12:44:44;97888.00;;;12.90
19666;BMP180;9980;51.020;7.772;2022-11-27T12:47:24;97896.00;;;12.90
19666;BMP180;9980;51.020;7.772;2022-11-27T12:49:59;97882.00;;;12.90
19666;BMP180;9980;51.020;7.772;2022-11-27T12:53:10;97877.00;;;12.90
19666;BMP180;9980;51.020;7.772;2022-11-27T12:55:47;97884.00;;;12.90
19666;BMP180;9980;51.020;7.772;2022-11-27T12:58:40;97876.00;;;12.90
19666;BMP180;9980;51.020;7.772;2022-11-27T13:01:21;97866.00;;;12.90
19666;BMP180;9980;51.020;7.772;2022-11-27T13:04:16;97869.00;;;12.90
19666;BMP180;9980;51.020;7.772;2022-11-27T13:07:03;97865.00;;;12.90
19666;BMP180;9980;51.020;7.772;2022-11-27T13:10:02;97846.00;;;12.90
19666;BMP180;9980;51.020;7.772;2022-11-27T13:15:20;97837.00;;;12.80
19666;BMP180;9980;51.020;7.772;2022-11-27T13:17:54;97814.00;;;12.70
19666;BMP180;9980;51.020;7.772;2022-11-27T13:20:33;97806.00;;;12.70
19666;BMP180;9980;51.020;7.772;2022-11-27T13:23:01;97807.00;;;12.70
19666;BMP180;9980;51.020;7.772;2022-11-27T13:25:30;97800.00;;;12.60
19666;BMP180;9980;51.020;7.772;2022-11-27T13:27:58;97798.00;;;12.60
19666;BMP180;9980;51.020;7.772;2022-11-27T13:30:30;97788.00;;;12.50
19666;BMP180;9980;51.020;7.772;2022-11-27T13:32:59;97786.00;;;12.50
19666;BMP180;9980;51.020;7.772;2022-11-27T13:35:30;97771.00;;;12.50
19666;BMP180;9980;51.020;7.772;2022-11-27T13:38:17;97769.00;;;12.40
19666;BMP180;9980;51.020;7.772;2022-11-27T13:40:51;97765.00;;;12.40
19666;BMP180;9980;51.020;7.772;2022-11-27T13:43:24;97758.00;;;12.30
19666;BMP180;9980;51.020;7.772;2022-11-27T13:46:28;97758.00;;;12.30
19666;BMP180;9980;51.020;7.772;2022-11-27T13:48:59;97755.00;;;12.30
19666;BMP180;9980;51.020;7.772;2022-11-27T13:51:32;97748.00;;;12.30
19666;BMP180;9980;51.020;7.772;2022-11-27T13:54:10;97747.00;;;12.30
19666;BMP180;9980;51.020;7.772;2022-11-27T13:56:38;97742.00;;;12.20
19666;BMP180;9980;51.020;7.772;2022-11-27T13:59:23;97730.00;;;12.20
19666;BMP180;9980;51.020;7.772;2022-11-27T14:02:06;97737.00;;;12.20
19666;BMP180;9980;51.020;7.772;2022-11-27T14:04:34;97731.00;;;12.20
19666;BMP180;9980;51.020;7.772;2022-11-27T14:07:06;97733.00;;;12.20
19666;BMP180;9980;51.020;7.772;2022-11-27T14:09:46;97736.00;;;12.10
19666;BMP180;9980;51.020;7.772;2022-11-27T14:12:30;97714.00;;;12.10
19666;BMP180;9980;51.020;7.772;2022-11-27T14:15:01;97722.00;;;12.10
19666;BMP180;9980;51.020;7.772;2022-11-27T14:17:41;97722.00;;;12.10
19666;BMP180;9980;51.020;7.772;2022-11-27T14:20:26;97714.00;;;12.10
19666;BMP180;9980;51.020;7.772;2022-11-27T14:22:58;97707.00;;;12.10
19666;BMP180;9980;51.020;7.772;2022-11-27T14:25:40;97713.00;;;12.10
19666;BMP180;9980;51.020;7.772;2022-11-27T14:28:22;97713.00;;;12.00
19666;BMP180;9980;51.020;7.772;2022-11-27T14:31:00;97708.00;;;12.00
19666;BMP180;9980;51.020;7.772;2022-11-27T14:33:32;97711.00;;;12.00
19666;BMP180;9980;51.020;7.772;2022-11-27T14:36:31;97727.00;;;12.00
19666;BMP180;9980;51.020;7.772;2022-11-27T14:39:00;97727.00;;;12.00
19666;BMP180;9980;51.020;7.772;2022-11-27T14:41:27;97740.00;;;12.00
19666;BMP180;9980;51.020;7.772;2022-11-27T14:44:06;97740.00;;;11.90
19666;BMP180;9980;51.020;7.772;2022-11-27T14:46:39;97733.00;;;11.90
19666;BMP180;9980;51.020;7.772;2022-11-27T14:49:18;97737.00;;;11.90
19666;BMP180;9980;51.020;7.772;2022-11-27T14:51:44;97728.00;;;11.90
19666;BMP180;9980;51.020;7.772;2022-11-27T14:54:24;97729.00;;;11.90
19666;BMP180;9980;51.020;7.772;2022-11-27T14:56:52;97733.00;;;11.90
19666;BMP180;9980;51.020;7.772;2022-11-27T14:59:21;97717.00;;;11.90
19666;BMP180;9980;51.020;7.772;2022-11-27T15:02:25;97714.00;;;11.80
19666;BMP180;9980;51.020;7.772;2022-11-27T15:05:03;97719.00;;;11.80
19666;BMP180;9980;51.020;7.772;2022-11-27T15:07:33;97711.00;;;11.80
19666;BMP180;9980;51.020;7.772;2022-11-27T15:12:53;97722.00;;;11.70
19666;BMP180;9980;51.020;7.772;2022-11-27T15:15:24;97698.00;;;11.70
19666;BMP180;9980;51.020;7.772;2022-11-27T15:17:58;97688.00;;;11.70
19666;BMP180;9980;51.020;7.772;2022-11-27T15:23:03;97719.00;;;11.60
19666;BMP180;9980;51.020;7.772;2022-11-27T15:25:41;97726.00;;;11.60
19666;BMP180;9980;51.020;7.772;2022-11-27T15:30:49;97725.00;;;11.50
19666;BMP180;9980;51.020;7.772;2022-11-27T15:33:30;97727.00;;;11.50
19666;BMP180;9980;51.020;7.772;2022-11-27T15:36:20;97703.00;;;11.50
19666;BMP180;9980;51.020;7.772;2022-11-27T15:38:47;97698.00;;;11.50
19666;BMP180;9980;51.020;7.772;2022-11-27T15:41:27;97711.00;;;11.40
19666;BMP180;9980;51.020;7.772;2022-11-27T15:43:55;97712.00;;;11.40
19666;BMP180;9980;51.020;7.772;2022-11-27T15:46:33;97709.00;;;11.40
19666;BMP180;9980;51.020;7.772;2022-11-27T15:49:00;97715.00;;;11.40
19666;BMP180;9980;51.020;7.772;2022-11-27T15:51:26;97714.00;;;11.40
19666;BMP180;9980;51.020;7.772;2022-11-27T15:53:52;97716.00;;;11.40
19666;BMP180;9980;51.020;7.772;2022-11-27T15:56:18;97707.00;;;11.40
19666;BMP180;9980;51.020;7.772;2022-11-27T15:58:44;97720.00;;;11.40
19666;BMP180;9980;51.020;7.772;2022-11-27T16:01:10;97699.00;;;11.40
19666;BMP180;9980;51.020;7.772;2022-11-27T16:03:37;97715.00;;;11.40
19666;BMP180;9980;51.020;7.772;2022-11-27T16:06:07;97714.00;;;11.40
19666;BMP180;9980;51.020;7.772;2022-11-27T16:08:33;97710.00;;;11.40
19666;BMP180;9980;51.020;7.772;2022-11-27T16:11:03;97703.00;;;11.40
19666;BMP180;9980;51.020;7.772;2022-11-27T16:13:30;97694.00;;;11.30
19666;BMP180;9980;51.020;7.772;2022-11-27T16:16:06;97701.00;;;11.30
19666;BMP180;9980;51.020;7.772;2022-11-27T16:18:34;97695.00;;;11.30
19666;BMP180;9980;51.020;7.772;2022-11-27T16:21:06;97695.00;;;11.30
19666;BMP180;9980;51.020;7.772;2022-11-27T16:23:34;97688.00;;;11.30
19666;BMP180;9980;51.020;7.772;2022-11-27T16:26:01;97674.00;;;11.30
19666;BMP180;9980;51.020;7.772;2022-11-27T16:28:30;97676.00;;;11.30
19666;BMP180;9980;51.020;7.772;2022-11-27T16:31:00;97673.00;;;11.20
19666;BMP180;9980;51.020;7.772;2022-11-27T16:33:29;97662.00;;;11.20